sensor_id;sensor_type;location;lat;lon;timestamp;P1;durP1;ratioP1;P2;durP2;ratioP2
291;SDS011;23311;48.776;9.162;2023-09-07T00:02:11;6.70;;;5.10;;
291;SDS011;23311;48.776;9.162;2023-09-07T00:04:39;8.40;;;6.17;;
291;SDS011;23311;48.776;9.162;2023-09-07T00:07:09;5.97;;;5.17;;
291;SDS011;23311;48.776;9.162;2023-09-07T00:09:37;6.27;;;4.60;;
291;SDS011;23311;48.776;9.162;2023-09-07T00:12:05;6.40;;;5.20;;
291;SDS011;23311;48.776;9.162;2023-09-07T00:14:34;6.80;;;5.57;;
291;SDS011;23311;48.776;9.162;2023-09-07T00:17:02;5.57;;;4.90;;
291;SDS011;23311;48.776;9.162;2023-09-07T00:19:31;5.50;;;5.17;;
291;SDS011;23311;48.776;9.162;2023-09-07T00:22:03;5.93;;;5.63;;
291;SDS011;23311;48.776;9.162;2023-09-07T00:24:33;5.80;;;5.50;;
291;SDS011;23311;48.776;9.162;2023-09-07T00:27:01;5.57;;;5.30;;
291;SDS011;23311;48.776;9.162;2023-09-07T00:29:32;5.97;;;5.10;;
291;SDS011;23311;48.776;9.162;2023-09-07T00:32:00;6.43;;;5.10;;
291;SDS011;23311;48.776;9.162;2023-09-07T00:34:29;5.30;;;4.90;;
291;SDS011;23311;48.776;9.162;2023-09-07T00:36:57;5.33;;;4.80;;
291;SDS011;23311;48.776;9.162;2023-09-07T00:39:25;6.40;;;5.10;;
291;SDS011;23311;48.776;9.162;2023-09-07T00:41:54;4.63;;;4.17;;
291;SDS011;23311;48.776;9.162;2023-09-07T00:44:23;6.13;;;4.63;;
291;SDS011;23311;48.776;9.162;2023-09-07T00:46:51;5.57;;;4.97;;
291;SDS011;23311;48.776;9.162;2023-09-07T00:49:19;6.10;;;5.20;;
291;SDS011;23311;48.776;9.162;2023-09-07T00:51:47;5.30;;;4.73;;
291;SDS011;23311;48.776;9.162;2023-09-07T00:54:15;5.00;;;4.60;;
291;SDS011;23311;48.776;9.162;2023-09-07T00:56:44;5.07;;;4.13;;
291;SDS011;23311;48.776;9.162;2023-09-07T00:59:14;5.27;;;4.70;;
291;SDS011;23311;48.776;9.162;2023-09-07T01:01:42;4.17;;;3.93;;
291;SDS011;23311;48.776;9.162;2023-09-07T01:04:10;5.60;;;5.00;;
291;SDS011;23311;48.776;9.162;2023-09-07T01:06:39;7.03;;;5.50;;
291;SDS011;23311;48.776;9.162;2023-09-07T01:09:11;6.83;;;4.70;;
291;SDS011;23311;48.776;9.162;2023-09-07T01:11:44;5.83;;;5.30;;
291;SDS011;23311;48.776;9.162;2023-09-07T01:14:14;7.43;;;5.70;;
291;SDS011;23311;48.776;9.162;2023-09-07T01:16:42;5.97;;;5.67;;
291;SDS011;23311;48.776;9.162;2023-09-07T01:19:11;5.80;;;5.17;;
291;SDS011;23311;48.776;9.162;2023-09-07T01:21:40;7.20;;;4.40;;
291;SDS011;23311;48.776;9.162;2023-09-07T01:24:09;6.13;;;5.00;;
291;SDS011;23311;48.776;9.162;2023-09-07T01:26:39;7.20;;;6.00;;
291;SDS011;23311;48.776;9.162;2023-09-07T01:29:09;5.97;;;5.67;;
291;SDS011;23311;48.776;9.162;2023-09-07T01:31:37;5.60;;;5.37;;
291;SDS011;23311;48.776;9.162;2023-09-07T01:34:06;5.40;;;4.70;;
291;SDS011;23311;48.776;9.162;2023-09-07T01:36:35;5.63;;;4.90;;
291;SDS011;23311;48.776;9.162;2023-09-07T01:39:04;5.70;;;4.80;;
291;SDS011;23311;48.776;9.162;2023-09-07T01:41:33;6.60;;;4.97;;
291;SDS011;23311;48.776;9.162;2023-09-07T01:44:01;7.53;;;5.50;;
291;SDS011;23311;48.776;9.162;2023-09-07T01:46:30;6.90;;;5.10;;
291;SDS011;23311;48.776;9.162;2023-09-07T01:48:58;5.43;;;5.13;;
291;SDS011;23311;48.776;9.162;2023-09-07T01:51:26;5.80;;;4.53;;
291;SDS011;23311;48.776;9.162;2023-09-07T01:53:54;5.43;;;4.83;;
291;SDS011;23311;48.776;9.162;2023-09-07T01:56:24;5.57;;;4.87;;
291;SDS011;23311;48.776;9.162;2023-09-07T01:58:52;5.23;;;4.73;;
291;SDS011;23311;48.776;9.162;2023-09-07T02:01:21;5.60;;;4.40;;
291;SDS011;23311;48.776;9.162;2023-09-07T02:03:50;5.90;;;5.10;;
291;SDS011;23311;48.776;9.162;2023-09-07T02:06:18;5.90;;;4.57;;
291;SDS011;23311;48.776;9.162;2023-09-07T02:08:46;5.83;;;5.57;;
291;SDS011;23311;48.776;9.162;2023-09-07T02:11:15;7.53;;;4.90;;
291;SDS011;23311;48.776;9.162;2023-09-07T02:13:46;6.77;;;5.37;;
291;SDS011;23311;48.776;9.162;2023-09-07T02:16:15;5.43;;;4.77;;
291;SDS011;23311;48.776;9.162;2023-09-07T02:18:44;5.13;;;4.70;;
291;SDS011;23311;48.776;9.162;2023-09-07T02:21:16;6.30;;;5.27;;
291;SDS011;23311;48.776;9.162;2023-09-07T02:23:44;6.70;;;5.70;;
291;SDS011;23311;48.776;9.162;2023-09-07T02:26:13;5.03;;;4.73;;
291;SDS011;23311;48.776;9.162;2023-09-07T02:28:41;5.33;;;5.10;;
291;SDS011;23311;48.776;9.162;2023-09-07T02:31:11;5.50;;;5.20;;
291;SDS011;23311;48.776;9.162;2023-09-07T02:33:39;7.73;;;5.50;;
291;SDS011;23311;48.776;9.162;2023-09-07T02:36:07;6.90;;;5.63;;
291;SDS011;23311;48.776;9.162;2023-09-07T02:38:35;6.23;;;5.60;;
291;SDS011;23311;48.776;9.162;2023-09-07T02:41:04;7.10;;;5.47;;
291;SDS011;23311;48.776;9.162;2023-09-07T02:43:32;9.03;;;7.17;;
291;SDS011;23311;48.776;9.162;2023-09-07T02:46:00;9.63;;;8.20;;
291;SDS011;23311;48.776;9.162;2023-09-07T02:48:29;7.37;;;5.87;;
291;SDS011;23311;48.776;9.162;2023-09-07T02:50:59;5.63;;;5.20;;
291;SDS011;23311;48.776;9.162;2023-09-07T02:53:27;6.27;;;5.93;;
291;SDS011;23311;48.776;9.162;2023-09-07T02:55:56;6.67;;;5.70;;
291;SDS011;23311;48.776;9.162;2023-09-07T02:58:24;6.93;;;5.50;;
291;SDS011;23311;48.776;9.162;2023-09-07T03:00:52;5.87;;;4.90;;
291;SDS011;23311;48.776;9.162;2023-09-07T03:03:21;5.43;;;5.13;;
291;SDS011;23311;48.776;9.162;2023-09-07T03:05:51;5.13;;;4.83;;
291;SDS011;23311;48.776;9.162;2023-09-07T03:08:19;6.60;;;5.03;;
291;SDS011;23311;48.776;9.162;2023-09-07T03:10:47;7.47;;;5.07;;
291;SDS011;23311;48.776;9.162;2023-09-07T03:13:16;5.70;;;5.40;;
291;SDS011;23311;48.776;9.162;2023-09-07T03:15:44;8.03;;;5.43;;
291;SDS011;23311;48.776;9.162;2023-09-07T03:18:12;9.40;;;5.57;;
291;SDS011;23311;48.776;9.162;2023-09-07T03:20:40;4.93;;;4.63;;
291;SDS011;23311;48.776;9.162;2023-09-07T03:23:09;5.10;;;4.80;;
291;SDS011;23311;48.776;9.162;2023-09-07T03:25:37;5.07;;;4.53;;
291;SDS011;23311;48.776;9.162;2023-09-07T03:28:06;6.10;;;4.77;;
291;SDS011;23311;48.776;9.162;2023-09-07T03:30:34;6.30;;;4.97;;
291;SDS011;23311;48.776;9.162;2023-09-07T03:33:02;5.20;;;4.73;;
291;SDS011;23311;48.776;9.162;2023-09-07T03:35:31;5.77;;;5.43;;
291;SDS011;23311;48.776;9.162;2023-09-07T03:37:59;5.27;;;4.93;;
291;SDS011;23311;48.776;9.162;2023-09-07T03:40:28;6.53;;;4.77;;
291;SDS011;23311;48.776;9.162;2023-09-07T03:42:56;6.20;;;5.50;;
291;SDS011;23311;48.776;9.162;2023-09-07T03:45:25;5.40;;;5.10;;
291;SDS011;23311;48.776;9.162;2023-09-07T03:47:53;5.40;;;4.70;;
291;SDS011;23311;48.776;9.162;2023-09-07T03:50:21;5.20;;;4.90;;
291;SDS011;23311;48.776;9.162;2023-09-07T03:52:49;4.70;;;4.37;;
291;SDS011;23311;48.776;9.162;2023-09-07T03:55:17;5.63;;;4.90;;
291;SDS011;23311;48.776;9.162;2023-09-07T03:57:50;5.60;;;5.30;;
291;SDS011;23311;48.776;9.162;2023-09-07T04:00:18;6.60;;;5.33;;
291;SDS011;23311;48.776;9.162;2023-09-07T04:02:46;9.03;;;6.20;;
291;SDS011;23311;48.776;9.162;2023-09-07T04:05:15;7.17;;;5.40;;
291;SDS011;23311;48.776;9.162;2023-09-07T04:07:43;7.70;;;6.17;;
291;SDS011;23311;48.776;9.162;2023-09-07T04:10:12;6.93;;;6.20;;
291;SDS011;23311;48.776;9.162;2023-09-07T04:12:40;8.30;;;6.00;;
291;SDS011;23311;48.776;9.162;2023-09-07T04:15:10;6.13;;;5.40;;
291;SDS011;23311;48.776;9.162;2023-09-07T04:17:38;7.40;;;5.80;;
291;SDS011;23311;48.776;9.162;2023-09-07T04:20:08;7.50;;;5.43;;
291;SDS011;23311;48.776;9.162;2023-09-07T04:22:38;5.80;;;5.50;;
291;SDS011;23311;48.776;9.162;2023-09-07T04:25:07;5.90;;;5.70;;
291;SDS011;23311;48.776;9.162;2023-09-07T04:27:35;7.10;;;6.17;;
291;SDS011;23311;48.776;9.162;2023-09-07T04:30:04;6.70;;;6.30;;
291;SDS011;23311;48.776;9.162;2023-09-07T04:32:35;7.77;;;6.47;;
291;SDS011;23311;48.776;9.162;2023-09-07T04:35:03;6.40;;;6.00;;
291;SDS011;23311;48.776;9.162;2023-09-07T04:37:32;7.40;;;6.50;;
291;SDS011;23311;48.776;9.162;2023-09-07T04:40:00;7.13;;;6.73;;
291;SDS011;23311;48.776;9.162;2023-09-07T04:42:29;7.00;;;6.60;;
291;SDS011;23311;48.776;9.162;2023-09-07T04:44:57;7.87;;;6.37;;
291;SDS011;23311;48.776;9.162;2023-09-07T04:47:25;10.33;;;7.00;;
291;SDS011;23311;48.776;9.162;2023-09-07T04:49:55;7.50;;;6.10;;
291;SDS011;23311;48.776;9.162;2023-09-07T04:52:23;6.40;;;5.70;;
291;SDS011;23311;48.776;9.162;2023-09-07T04:54:51;7.57;;;5.67;;
291;SDS011;23311;48.776;9.162;2023-09-07T04:57:19;6.47;;;5.80;;
291;SDS011;23311;48.776;9.162;2023-09-07T04:59:47;6.43;;;6.00;;
291;SDS011;23311;48.776;9.162;2023-09-07T05:02:15;6.80;;;5.80;;
291;SDS011;23311;48.776;9.162;2023-09-07T05:04:44;6.67;;;6.27;;
291;SDS011;23311;48.776;9.162;2023-09-07T05:07:13;6.47;;;6.13;;
291;SDS011;23311;48.776;9.162;2023-09-07T05:09:42;6.40;;;6.00;;
291;SDS011;23311;48.776;9.162;2023-09-07T05:12:10;8.53;;;5.77;;
291;SDS011;23311;48.776;9.162;2023-09-07T05:14:38;5.97;;;5.67;;
291;SDS011;23311;48.776;9.162;2023-09-07T05:17:06;7.10;;;5.93;;
291;SDS011;23311;48.776;9.162;2023-09-07T05:19:34;8.07;;;5.53;;
291;SDS011;23311;48.776;9.162;2023-09-07T05:22:02;5.20;;;4.90;;
291;SDS011;23311;48.776;9.162;2023-09-07T05:24:32;5.63;;;5.30;;
291;SDS011;23311;48.776;9.162;2023-09-07T05:27:00;7.17;;;6.00;;
291;SDS011;23311;48.776;9.162;2023-09-07T05:29:29;6.67;;;5.83;;
291;SDS011;23311;48.776;9.162;2023-09-07T05:31:57;6.70;;;6.10;;
291;SDS011;23311;48.776;9.162;2023-09-07T05:34:29;7.53;;;6.00;;
291;SDS011;23311;48.776;9.162;2023-09-07T05:36:57;9.97;;;6.23;;
291;SDS011;23311;48.776;9.162;2023-09-07T05:39:25;7.23;;;6.83;;
291;SDS011;23311;48.776;9.162;2023-09-07T05:41:54;7.87;;;7.33;;
291;SDS011;23311;48.776;9.162;2023-09-07T05:44:22;7.50;;;6.20;;
291;SDS011;23311;48.776;9.162;2023-09-07T05:46:50;7.53;;;6.17;;
291;SDS011;23311;48.776;9.162;2023-09-07T05:49:19;7.40;;;6.37;;
291;SDS011;23311;48.776;9.162;2023-09-07T05:51:47;6.47;;;6.07;;
291;SDS011;23311;48.776;9.162;2023-09-07T05:54:15;7.87;;;6.87;;
291;SDS011;23311;48.776;9.162;2023-09-07T05:56:43;9.60;;;6.67;;
291;SDS011;23311;48.776;9.162;2023-09-07T05:59:13;8.20;;;6.60;;
291;SDS011;23311;48.776;9.162;2023-09-07T06:01:41;8.90;;;7.50;;
291;SDS011;23311;48.776;9.162;2023-09-07T06:04:16;9.37;;;6.83;;
291;SDS011;23311;48.776;9.162;2023-09-07T06:06:44;8.33;;;6.33;;
291;SDS011;23311;48.776;9.162;2023-09-07T06:09:12;7.63;;;7.23;;
291;SDS011;23311;48.776;9.162;2023-09-07T06:11:40;9.40;;;7.20;;
291;SDS011;23311;48.776;9.162;2023-09-07T06:14:09;9.20;;;6.87;;
291;SDS011;23311;48.776;9.162;2023-09-07T06:16:39;7.30;;;6.90;;
291;SDS011;23311;48.776;9.162;2023-09-07T06:19:07;8.47;;;6.93;;
291;SDS011;23311;48.776;9.162;2023-09-07T06:21:35;16.00;;;7.50;;
291;SDS011;23311;48.776;9.162;2023-09-07T06:24:04;7.77;;;6.90;;
291;SDS011;23311;48.776;9.162;2023-09-07T06:26:33;8.80;;;6.60;;
291;SDS011;23311;48.776;9.162;2023-09-07T06:29:01;8.00;;;7.40;;
291;SDS011;23311;48.776;9.162;2023-09-07T06:31:29;10.63;;;7.63;;
291;SDS011;23311;48.776;9.162;2023-09-07T06:33:59;19.67;;;8.43;;
291;SDS011;23311;48.776;9.162;2023-09-07T06:36:27;7.70;;;7.07;;
291;SDS011;23311;48.776;9.162;2023-09-07T06:39:11;7.80;;;6.90;;
291;SDS011;23311;48.776;9.162;2023-09-07T06:41:39;9.10;;;7.60;;
291;SDS011;23311;48.776;9.162;2023-09-07T06:44:08;8.33;;;7.90;;
291;SDS011;23311;48.776;9.162;2023-09-07T06:46:36;10.40;;;7.73;;
291;SDS011;23311;48.776;9.162;2023-09-07T06:49:06;10.07;;;7.40;;
291;SDS011;23311;48.776;9.162;2023-09-07T06:51:34;12.37;;;8.00;;
291;SDS011;23311;48.776;9.162;2023-09-07T06:54:02;12.30;;;7.17;;
291;SDS011;23311;48.776;9.162;2023-09-07T06:56:31;10.20;;;7.73;;
291;SDS011;23311;48.776;9.162;2023-09-07T06:59:01;12.87;;;8.20;;
291;SDS011;23311;48.776;9.162;2023-09-07T07:01:29;11.70;;;8.13;;
291;SDS011;23311;48.776;9.162;2023-09-07T07:03:57;8.00;;;7.60;;
291;SDS011;23311;48.776;9.162;2023-09-07T07:06:27;13.07;;;8.03;;
291;SDS011;23311;48.776;9.162;2023-09-07T07:08:55;7.40;;;6.20;;
291;SDS011;23311;48.776;9.162;2023-09-07T07:11:24;10.23;;;7.37;;
291;SDS011;23311;48.776;9.162;2023-09-07T07:13:52;8.33;;;7.00;;
291;SDS011;23311;48.776;9.162;2023-09-07T07:16:20;9.23;;;6.60;;
291;SDS011;23311;48.776;9.162;2023-09-07T07:18:48;11.77;;;6.73;;
291;SDS011;23311;48.776;9.162;2023-09-07T07:21:16;8.63;;;7.17;;
291;SDS011;23311;48.776;9.162;2023-09-07T07:23:46;7.03;;;5.90;;
291;SDS011;23311;48.776;9.162;2023-09-07T07:26:14;8.10;;;5.77;;
291;SDS011;23311;48.776;9.162;2023-09-07T07:28:42;9.00;;;6.27;;
291;SDS011;23311;48.776;9.162;2023-09-07T07:31:19;6.70;;;6.30;;
291;SDS011;23311;48.776;9.162;2023-09-07T07:33:48;10.20;;;7.13;;
291;SDS011;23311;48.776;9.162;2023-09-07T07:36:16;6.57;;;6.17;;
291;SDS011;23311;48.776;9.162;2023-09-07T07:38:45;6.97;;;6.53;;
291;SDS011;23311;48.776;9.162;2023-09-07T07:41:14;7.10;;;6.20;;
291;SDS011;23311;48.776;9.162;2023-09-07T07:43:42;6.53;;;6.13;;
291;SDS011;23311;48.776;9.162;2023-09-07T07:46:10;7.57;;;6.10;;
291;SDS011;23311;48.776;9.162;2023-09-07T07:48:42;6.87;;;6.17;;
291;SDS011;23311;48.776;9.162;2023-09-07T07:51:10;8.87;;;6.27;;
291;SDS011;23311;48.776;9.162;2023-09-07T07:53:38;8.60;;;6.73;;
291;SDS011;23311;48.776;9.162;2023-09-07T07:56:15;7.80;;;6.07;;
291;SDS011;23311;48.776;9.162;2023-09-07T07:58:43;7.40;;;6.63;;
291;SDS011;23311;48.776;9.162;2023-09-07T08:01:15;8.20;;;6.87;;
291;SDS011;23311;48.776;9.162;2023-09-07T08:03:44;8.00;;;6.70;;
291;SDS011;23311;48.776;9.162;2023-09-07T08:06:13;5.40;;;5.13;;
291;SDS011;23311;48.776;9.162;2023-09-07T08:08:41;7.90;;;5.73;;
291;SDS011;23311;48.776;9.162;2023-09-07T08:11:09;6.90;;;5.90;;
291;SDS011;23311;48.776;9.162;2023-09-07T08:13:39;8.77;;;6.07;;
291;SDS011;23311;48.776;9.162;2023-09-07T08:16:07;6.23;;;5.90;;
291;SDS011;23311;48.776;9.162;2023-09-07T08:18:39;5.77;;;5.30;;
291;SDS011;23311;48.776;9.162;2023-09-07T08:21:08;5.50;;;5.20;;
291;SDS011;23311;48.776;9.162;2023-09-07T08:23:36;5.60;;;5.30;;
291;SDS011;23311;48.776;9.162;2023-09-07T08:26:04;5.60;;;5.30;;
291;SDS011;23311;48.776;9.162;2023-09-07T08:28:33;5.53;;;5.23;;
291;SDS011;23311;48.776;9.162;2023-09-07T08:31:04;6.00;;;5.70;;
291;SDS011;23311;48.776;9.162;2023-09-07T08:33:32;5.93;;;5.67;;
291;SDS011;23311;48.776;9.162;2023-09-07T08:36:07;6.03;;;5.67;;
291;SDS011;23311;48.776;9.162;2023-09-07T08:38:36;5.67;;;5.37;;
291;SDS011;23311;48.776;9.162;2023-09-07T08:41:04;5.70;;;5.40;;
291;SDS011;23311;48.776;9.162;2023-09-07T08:43:33;5.93;;;5.57;;
291;SDS011;23311;48.776;9.162;2023-09-07T08:46:15;5.57;;;5.27;;
291;SDS011;23311;48.776;9.162;2023-09-07T08:48:47;5.93;;;5.63;;
291;SDS011;23311;48.776;9.162;2023-09-07T08:51:17;6.63;;;6.23;;
291;SDS011;23311;48.776;9.162;2023-09-07T08:53:46;5.47;;;5.20;;
291;SDS011;23311;48.776;9.162;2023-09-07T08:56:16;5.93;;;5.63;;
291;SDS011;23311;48.776;9.162;2023-09-07T08:58:45;5.93;;;5.63;;
291;SDS011;23311;48.776;9.162;2023-09-07T09:01:17;9.00;;;5.80;;
291;SDS011;23311;48.776;9.162;2023-09-07T09:03:48;4.90;;;4.60;;
291;SDS011;23311;48.776;9.162;2023-09-07T09:06:18;5.13;;;4.73;;
291;SDS011;23311;48.776;9.162;2023-09-07T09:08:48;5.50;;;5.20;;
291;SDS011;23311;48.776;9.162;2023-09-07T09:11:18;5.90;;;5.60;;
291;SDS011;23311;48.776;9.162;2023-09-07T09:13:48;6.27;;;5.70;;
291;SDS011;23311;48.776;9.162;2023-09-07T09:16:19;5.77;;;5.57;;
291;SDS011;23311;48.776;9.162;2023-09-07T09:18:48;6.47;;;6.07;;
291;SDS011;23311;48.776;9.162;2023-09-07T09:21:19;5.60;;;5.30;;
291;SDS011;23311;48.776;9.162;2023-09-07T09:23:48;6.00;;;5.70;;
291;SDS011;23311;48.776;9.162;2023-09-07T09:26:17;6.67;;;6.27;;
291;SDS011;23311;48.776;9.162;2023-09-07T09:28:45;6.10;;;5.80;;
291;SDS011;23311;48.776;9.162;2023-09-07T09:31:14;6.40;;;6.00;;
291;SDS011;23311;48.776;9.162;2023-09-07T09:33:48;6.13;;;5.83;;
291;SDS011;23311;48.776;9.162;2023-09-07T09:36:18;6.60;;;5.47;;
291;SDS011;23311;48.776;9.162;2023-09-07T09:38:47;7.67;;;5.83;;
291;SDS011;23311;48.776;9.162;2023-09-07T09:41:17;5.80;;;5.50;;
291;SDS011;23311;48.776;9.162;2023-09-07T09:43:45;5.33;;;5.03;;
291;SDS011;23311;48.776;9.162;2023-09-07T09:46:15;5.80;;;5.37;;
291;SDS011;23311;48.776;9.162;2023-09-07T09:48:45;5.83;;;5.43;;
291;SDS011;23311;48.776;9.162;2023-09-07T09:51:15;7.03;;;6.60;;
291;SDS011;23311;48.776;9.162;2023-09-07T09:53:45;6.70;;;6.10;;
291;SDS011;23311;48.776;9.162;2023-09-07T09:56:15;5.80;;;5.40;;
291;SDS011;23311;48.776;9.162;2023-09-07T09:58:44;6.13;;;5.83;;
291;SDS011;23311;48.776;9.162;2023-09-07T10:01:12;7.33;;;6.30;;
291;SDS011;23311;48.776;9.162;2023-09-07T10:03:42;5.90;;;5.60;;
291;SDS011;23311;48.776;9.162;2023-09-07T10:06:18;6.03;;;5.73;;
291;SDS011;23311;48.776;9.162;2023-09-07T10:08:58;7.07;;;6.60;;
291;SDS011;23311;48.776;9.162;2023-09-07T10:11:27;7.07;;;6.67;;
291;SDS011;23311;48.776;9.162;2023-09-07T10:13:58;7.10;;;6.70;;
291;SDS011;23311;48.776;9.162;2023-09-07T10:16:27;6.33;;;5.97;;
291;SDS011;23311;48.776;9.162;2023-09-07T10:18:56;6.70;;;5.80;;
291;SDS011;23311;48.776;9.162;2023-09-07T10:21:25;8.00;;;7.23;;
291;SDS011;23311;48.776;9.162;2023-09-07T10:23:53;6.43;;;6.03;;
291;SDS011;23311;48.776;9.162;2023-09-07T10:26:21;6.10;;;5.80;;
291;SDS011;23311;48.776;9.162;2023-09-07T10:28:58;7.67;;;6.80;;
291;SDS011;23311;48.776;9.162;2023-09-07T10:31:27;7.50;;;6.97;;
291;SDS011;23311;48.776;9.162;2023-09-07T10:34:18;8.87;;;6.87;;
291;SDS011;23311;48.776;9.162;2023-09-07T10:36:47;7.40;;;7.00;;
291;SDS011;23311;48.776;9.162;2023-09-07T10:39:17;7.40;;;6.80;;
291;SDS011;23311;48.776;9.162;2023-09-07T10:41:45;7.33;;;6.93;;
291;SDS011;23311;48.776;9.162;2023-09-07T10:44:14;8.27;;;6.20;;
291;SDS011;23311;48.776;9.162;2023-09-07T10:46:42;6.63;;;6.23;;
291;SDS011;23311;48.776;9.162;2023-09-07T10:49:11;7.20;;;6.80;;
291;SDS011;23311;48.776;9.162;2023-09-07T10:51:41;8.53;;;6.30;;
291;SDS011;23311;48.776;9.162;2023-09-07T10:54:16;7.87;;;6.83;;
291;SDS011;23311;48.776;9.162;2023-09-07T10:56:44;8.47;;;6.50;;
291;SDS011;23311;48.776;9.162;2023-09-07T10:59:13;8.60;;;6.37;;
291;SDS011;23311;48.776;9.162;2023-09-07T11:01:43;7.07;;;6.67;;
291;SDS011;23311;48.776;9.162;2023-09-07T11:04:12;6.90;;;6.50;;
291;SDS011;23311;48.776;9.162;2023-09-07T11:06:42;7.87;;;6.47;;
291;SDS011;23311;48.776;9.162;2023-09-07T11:09:11;6.57;;;6.17;;
291;SDS011;23311;48.776;9.162;2023-09-07T11:11:39;6.70;;;6.30;;
291;SDS011;23311;48.776;9.162;2023-09-07T11:14:07;7.30;;;6.70;;
291;SDS011;23311;48.776;9.162;2023-09-07T11:16:35;7.30;;;6.93;;
291;SDS011;23311;48.776;9.162;2023-09-07T11:19:04;6.60;;;6.20;;
291;SDS011;23311;48.776;9.162;2023-09-07T11:21:33;6.17;;;5.87;;
291;SDS011;23311;48.776;9.162;2023-09-07T11:24:04;7.63;;;7.10;;
291;SDS011;23311;48.776;9.162;2023-09-07T11:26:42;7.73;;;7.33;;
291;SDS011;23311;48.776;9.162;2023-09-07T11:29:13;8.93;;;5.63;;
291;SDS011;23311;48.776;9.162;2023-09-07T11:31:42;7.50;;;7.10;;
291;SDS011;23311;48.776;9.162;2023-09-07T11:34:11;6.97;;;6.13;;
291;SDS011;23311;48.776;9.162;2023-09-07T11:36:39;8.43;;;6.47;;
291;SDS011;23311;48.776;9.162;2023-09-07T11:39:09;7.57;;;7.17;;
291;SDS011;23311;48.776;9.162;2023-09-07T11:41:40;7.53;;;7.07;;
291;SDS011;23311;48.776;9.162;2023-09-07T11:44:09;5.53;;;5.23;;
291;SDS011;23311;48.776;9.162;2023-09-07T11:46:39;7.30;;;6.80;;
291;SDS011;23311;48.776;9.162;2023-09-07T11:49:07;6.63;;;6.23;;
291;SDS011;23311;48.776;9.162;2023-09-07T11:51:36;6.53;;;6.13;;
291;SDS011;23311;48.776;9.162;2023-09-07T11:54:05;6.30;;;5.73;;
291;SDS011;23311;48.776;9.162;2023-09-07T11:56:34;5.93;;;5.63;;
291;SDS011;23311;48.776;9.162;2023-09-07T11:59:06;6.07;;;5.77;;
291;SDS011;23311;48.776;9.162;2023-09-07T12:01:34;8.10;;;7.70;;
291;SDS011;23311;48.776;9.162;2023-09-07T12:04:06;6.03;;;5.73;;
291;SDS011;23311;48.776;9.162;2023-09-07T12:06:35;7.23;;;6.33;;
291;SDS011;23311;48.776;9.162;2023-09-07T12:09:03;5.77;;;5.47;;
291;SDS011;23311;48.776;9.162;2023-09-07T12:11:34;5.80;;;5.50;;
291;SDS011;23311;48.776;9.162;2023-09-07T12:14:03;5.60;;;5.30;;
291;SDS011;23311;48.776;9.162;2023-09-07T12:16:32;5.00;;;4.70;;
291;SDS011;23311;48.776;9.162;2023-09-07T12:19:00;6.10;;;5.80;;
291;SDS011;23311;48.776;9.162;2023-09-07T12:21:28;5.80;;;5.50;;
291;SDS011;23311;48.776;9.162;2023-09-07T12:23:56;5.70;;;5.43;;
291;SDS011;23311;48.776;9.162;2023-09-07T12:26:24;6.13;;;5.63;;
291;SDS011;23311;48.776;9.162;2023-09-07T12:28:54;5.73;;;5.43;;
291;SDS011;23311;48.776;9.162;2023-09-07T12:31:22;5.70;;;5.40;;
291;SDS011;23311;48.776;9.162;2023-09-07T12:33:50;5.90;;;5.50;;
291;SDS011;23311;48.776;9.162;2023-09-07T12:36:19;5.47;;;5.17;;
291;SDS011;23311;48.776;9.162;2023-09-07T12:38:48;5.10;;;4.80;;
291;SDS011;23311;48.776;9.162;2023-09-07T12:41:16;5.60;;;5.30;;
291;SDS011;23311;48.776;9.162;2023-09-07T12:43:44;5.10;;;4.80;;
291;SDS011;23311;48.776;9.162;2023-09-07T12:46:14;5.70;;;5.40;;
291;SDS011;23311;48.776;9.162;2023-09-07T12:48:42;5.97;;;5.03;;
291;SDS011;23311;48.776;9.162;2023-09-07T12:51:10;5.20;;;4.93;;
291;SDS011;23311;48.776;9.162;2023-09-07T12:53:39;6.27;;;4.70;;
291;SDS011;23311;48.776;9.162;2023-09-07T12:56:07;5.10;;;4.80;;
291;SDS011;23311;48.776;9.162;2023-09-07T12:58:35;5.00;;;4.70;;
291;SDS011;23311;48.776;9.162;2023-09-07T13:01:04;4.97;;;4.67;;
291;SDS011;23311;48.776;9.162;2023-09-07T13:03:33;4.60;;;4.30;;
291;SDS011;23311;48.776;9.162;2023-09-07T13:06:02;5.03;;;4.73;;
291;SDS011;23311;48.776;9.162;2023-09-07T13:08:30;4.63;;;4.37;;
291;SDS011;23311;48.776;9.162;2023-09-07T13:11:02;4.80;;;4.50;;
291;SDS011;23311;48.776;9.162;2023-09-07T13:13:30;5.00;;;4.70;;
291;SDS011;23311;48.776;9.162;2023-09-07T13:15:59;6.10;;;5.17;;
291;SDS011;23311;48.776;9.162;2023-09-07T13:18:27;5.90;;;4.97;;
291;SDS011;23311;48.776;9.162;2023-09-07T13:20:57;5.20;;;4.90;;
291;SDS011;23311;48.776;9.162;2023-09-07T13:23:27;5.03;;;4.73;;
291;SDS011;23311;48.776;9.162;2023-09-07T13:25:57;6.03;;;4.83;;
291;SDS011;23311;48.776;9.162;2023-09-07T13:28:27;4.80;;;4.50;;
291;SDS011;23311;48.776;9.162;2023-09-07T13:30:58;4.63;;;4.33;;
291;SDS011;23311;48.776;9.162;2023-09-07T13:33:27;5.67;;;5.20;;
291;SDS011;23311;48.776;9.162;2023-09-07T13:35:58;4.50;;;4.20;;
291;SDS011;23311;48.776;9.162;2023-09-07T13:38:26;4.87;;;4.57;;
291;SDS011;23311;48.776;9.162;2023-09-07T13:40:54;5.20;;;4.90;;
291;SDS011;23311;48.776;9.162;2023-09-07T13:43:22;5.27;;;4.53;;
291;SDS011;23311;48.776;9.162;2023-09-07T13:45:51;7.30;;;4.73;;
291;SDS011;23311;48.776;9.162;2023-09-07T13:48:19;5.60;;;4.97;;
291;SDS011;23311;48.776;9.162;2023-09-07T13:50:47;5.73;;;4.17;;
291;SDS011;23311;48.776;9.162;2023-09-07T13:53:17;4.70;;;4.40;;
291;SDS011;23311;48.776;9.162;2023-09-07T13:55:45;4.63;;;4.20;;
291;SDS011;23311;48.776;9.162;2023-09-07T13:58:14;5.00;;;4.70;;
291;SDS011;23311;48.776;9.162;2023-09-07T14:00:42;4.93;;;4.63;;
291;SDS011;23311;48.776;9.162;2023-09-07T14:03:10;4.80;;;4.33;;
291;SDS011;23311;48.776;9.162;2023-09-07T14:05:38;4.90;;;4.60;;
291;SDS011;23311;48.776;9.162;2023-09-07T14:08:07;5.53;;;4.93;;
291;SDS011;23311;48.776;9.162;2023-09-07T14:10:36;4.93;;;4.63;;
291;SDS011;23311;48.776;9.162;2023-09-07T14:13:04;5.80;;;4.70;;
291;SDS011;23311;48.776;9.162;2023-09-07T14:15:32;5.03;;;4.73;;
291;SDS011;23311;48.776;9.162;2023-09-07T14:18:00;4.33;;;3.90;;
291;SDS011;23311;48.776;9.162;2023-09-07T14:20:29;4.43;;;4.13;;
291;SDS011;23311;48.776;9.162;2023-09-07T14:22:57;4.70;;;4.40;;
291;SDS011;23311;48.776;9.162;2023-09-07T14:25:27;5.63;;;4.50;;
291;SDS011;23311;48.776;9.162;2023-09-07T14:27:56;5.73;;;4.90;;
291;SDS011;23311;48.776;9.162;2023-09-07T14:30:24;5.30;;;5.00;;
291;SDS011;23311;48.776;9.162;2023-09-07T14:32:53;5.07;;;4.77;;
291;SDS011;23311;48.776;9.162;2023-09-07T14:35:21;4.90;;;4.60;;
291;SDS011;23311;48.776;9.162;2023-09-07T14:37:49;4.60;;;4.30;;
291;SDS011;23311;48.776;9.162;2023-09-07T14:40:19;4.60;;;4.30;;
291;SDS011;23311;48.776;9.162;2023-09-07T14:42:48;6.50;;;4.20;;
291;SDS011;23311;48.776;9.162;2023-09-07T14:45:18;4.67;;;4.37;;
291;SDS011;23311;48.776;9.162;2023-09-07T14:47:46;4.43;;;4.13;;
291;SDS011;23311;48.776;9.162;2023-09-07T14:50:14;4.60;;;4.30;;
291;SDS011;23311;48.776;9.162;2023-09-07T14:52:42;4.33;;;4.03;;
291;SDS011;23311;48.776;9.162;2023-09-07T14:55:13;4.80;;;4.30;;
291;SDS011;23311;48.776;9.162;2023-09-07T14:57:42;4.60;;;4.20;;
291;SDS011;23311;48.776;9.162;2023-09-07T15:00:10;4.97;;;4.67;;
291;SDS011;23311;48.776;9.162;2023-09-07T15:02:40;4.63;;;4.40;;
291;SDS011;23311;48.776;9.162;2023-09-07T15:05:09;5.57;;;4.93;;
291;SDS011;23311;48.776;9.162;2023-09-07T15:07:37;8.27;;;4.27;;
291;SDS011;23311;48.776;9.162;2023-09-07T15:10:06;4.37;;;4.07;;
291;SDS011;23311;48.776;9.162;2023-09-07T15:12:34;4.13;;;3.93;;
291;SDS011;23311;48.776;9.162;2023-09-07T15:15:03;4.67;;;4.37;;
291;SDS011;23311;48.776;9.162;2023-09-07T15:17:32;4.73;;;4.50;;
291;SDS011;23311;48.776;9.162;2023-09-07T15:20:07;4.83;;;4.57;;
291;SDS011;23311;48.776;9.162;2023-09-07T15:22:35;4.70;;;4.40;;
291;SDS011;23311;48.776;9.162;2023-09-07T15:25:04;5.00;;;4.47;;
291;SDS011;23311;48.776;9.162;2023-09-07T15:27:32;5.23;;;4.50;;